sensor_id;sensor_type;location;lat;lon;timestamp;temperature;humidity
75994;DHT22;64680;53.800;9.988;2023-03-23T00:00:48;8.90;84.60
75994;DHT22;64680;53.800;9.988;2023-03-23T00:03:13;9.00;84.90
75994;DHT22;64680;53.800;9.988;2023-03-23T00:05:39;8.90;85.20
75994;DHT22;64680;53.800;9.988;2023-03-23T00:08:07;8.90;85.70
75994;DHT22;64680;53.800;9.988;2023-03-23T00:10:36;8.90;86.10
75994;DHT22;64680;53.800;9.988;2023-03-23T00:13:02;8.90;86.50
75994;DHT22;64680;53.800;9.988;2023-03-23T00:15:28;8.90;86.90
75994;DHT22;64680;53.800;9.988;2023-03-23T00:17:59;8.90;88.10
75994;DHT22;64680;53.800;9.988;2023-03-23T00:20:30;8.90;87.30
75994;DHT22;64680;53.800;9.988;2023-03-23T00:23:02;8.90;87.60
75994;DHT22;64680;53.800;9.988;2023-03-23T00:25:29;8.90;87.80
75994;DHT22;64680;53.800;9.988;2023-03-23T00:27:54;8.90;87.70
75994;DHT22;64680;53.800;9.988;2023-03-23T00:30:20;8.90;87.70
75994;DHT22;64680;53.800;9.988;2023-03-23T00:32:47;8.90;87.60
75994;DHT22;64680;53.800;9.988;2023-03-23T00:35:14;8.90;87.60
75994;DHT22;64680;53.800;9.988;2023-03-23T00:37:39;8.90;87.60
75994;DHT22;64680;53.800;9.988;2023-03-23T00:40:05;8.90;88.00
75994;DHT22;64680;53.800;9.988;2023-03-23T00:42:35;8.90;88.20
75994;DHT22;64680;53.800;9.988;2023-03-23T00:45:03;8.90;88.50
75994;DHT22;64680;53.800;9.988;2023-03-23T00:47:38;8.90;88.70
75994;DHT22;64680;53.800;9.988;2023-03-23T00:50:06;9.00;88.90
75994;DHT22;64680;53.800;9.988;2023-03-23T00:52:32;8.90;89.00
75994;DHT22;64680;53.800;9.988;2023-03-23T00:54:57;9.00;89.10
75994;DHT22;64680;53.800;9.988;2023-03-23T00:57:23;8.90;89.10
75994;DHT22;64680;53.800;9.988;2023-03-23T00:59:51;9.00;89.20
75994;DHT22;64680;53.800;9.988;2023-03-23T01:02:16;9.00;89.30
75994;DHT22;64680;53.800;9.988;2023-03-23T01:04:43;9.00;89.40
75994;DHT22;64680;53.800;9.988;2023-03-23T01:07:12;9.00;89.50
75994;DHT22;64680;53.800;9.988;2023-03-23T01:09:43;9.00;89.50
75994;DHT22;64680;53.800;9.988;2023-03-23T01:12:12;9.00;89.60
75994;DHT22;64680;53.800;9.988;2023-03-23T01:14:37;9.00;89.50
75994;DHT22;64680;53.800;9.988;2023-03-23T01:17:03;9.10;89.70
75994;DHT22;64680;53.800;9.988;2023-03-23T01:19:29;9.10;90.50
75994;DHT22;64680;53.800;9.988;2023-03-23T01:21:55;9.10;89.60
75994;DHT22;64680;53.800;9.988;2023-03-23T01:24:20;9.10;89.60
75994;DHT22;64680;53.800;9.988;2023-03-23T01:26:46;9.10;89.50
75994;DHT22;64680;53.800;9.988;2023-03-23T01:29:12;9.10;89.50
75994;DHT22;64680;53.800;9.988;2023-03-23T01:31:39;9.10;89.50
75994;DHT22;64680;53.800;9.988;2023-03-23T01:34:05;9.10;89.50
75994;DHT22;64680;53.800;9.988;2023-03-23T01:36:31;9.10;89.40
75994;DHT22;64680;53.800;9.988;2023-03-23T01:38:59;9.10;89.50
75994;DHT22;64680;53.800;9.988;2023-03-23T01:41:26;9.00;89.30
75994;DHT22;64680;53.800;9.988;2023-03-23T01:46:38;9.10;89.40
75994;DHT22;64680;53.800;9.988;2023-03-23T01:49:09;9.10;89.40
75994;DHT22;64680;53.800;9.988;2023-03-23T01:51:41;9.10;89.40
75994;DHT22;64680;53.800;9.988;2023-03-23T01:54:12;9.10;89.30
75994;DHT22;64680;53.800;9.988;2023-03-23T01:57:06;9.10;89.30
75994;DHT22;64680;53.800;9.988;2023-03-23T01:59:34;9.10;89.30
75994;DHT22;64680;53.800;9.988;2023-03-23T02:02:00;9.10;89.30
75994;DHT22;64680;53.800;9.988;2023-03-23T02:04:26;9.10;89.30
75994;DHT22;64680;53.800;9.988;2023-03-23T02:06:53;9.20;89.30
75994;DHT22;64680;53.800;9.988;2023-03-23T02:09:21;9.20;89.30
75994;DHT22;64680;53.800;9.988;2023-03-23T02:11:48;9.10;89.40
75994;DHT22;64680;53.800;9.988;2023-03-23T02:14:15;9.20;89.30
75994;DHT22;64680;53.800;9.988;2023-03-23T02:17:17;9.20;89.30
75994;DHT22;64680;53.800;9.988;2023-03-23T02:20:13;9.20;89.20
75994;DHT22;64680;53.800;9.988;2023-03-23T02:32:25;9.30;89.40
75994;DHT22;64680;53.800;9.988;2023-03-23T02:34:42;9.30;89.30
75994;DHT22;64680;53.800;9.988;2023-03-23T02:37:34;9.20;89.30
75994;DHT22;64680;53.800;9.988;2023-03-23T02:42:34;9.30;89.40
75994;DHT22;64680;53.800;9.988;2023-03-23T02:45:02;9.30;89.50
75994;DHT22;64680;53.800;9.988;2023-03-23T02:47:29;9.30;89.50
75994;DHT22;64680;53.800;9.988;2023-03-23T02:49:57;9.30;89.60
75994;DHT22;64680;53.800;9.988;2023-03-23T02:52:28;9.30;89.60
75994;DHT22;64680;53.800;9.988;2023-03-23T02:54:56;9.30;89.50
75994;DHT22;64680;53.800;9.988;2023-03-23T02:57:23;9.30;89.50
75994;DHT22;64680;53.800;9.988;2023-03-23T02:59:50;9.30;89.60
75994;DHT22;64680;53.800;9.988;2023-03-23T03:02:23;9.30;89.70
75994;DHT22;64680;53.800;9.988;2023-03-23T03:10:54;9.40;89.70
75994;DHT22;64680;53.800;9.988;2023-03-23T03:13:25;9.40;89.70
75994;DHT22;64680;53.800;9.988;2023-03-23T03:16:18;9.40;89.80
75994;DHT22;64680;53.800;9.988;2023-03-23T03:21:26;9.40;89.80
75994;DHT22;64680;53.800;9.988;2023-03-23T03:23:55;9.40;89.90
75994;DHT22;64680;53.800;9.988;2023-03-23T03:26:23;9.40;89.90
75994;DHT22;64680;53.800;9.988;2023-03-23T03:28:55;9.40;89.90
75994;DHT22;64680;53.800;9.988;2023-03-23T03:31:26;9.30;90.00
75994;DHT22;64680;53.800;9.988;2023-03-23T03:33:53;9.30;90.00
75994;DHT22;64680;53.800;9.988;2023-03-23T03:36:26;9.30;89.90
75994;DHT22;64680;53.800;9.988;2023-03-23T03:38:52;9.40;89.90
75994;DHT22;64680;53.800;9.988;2023-03-23T03:41:19;9.30;89.80
75994;DHT22;64680;53.800;9.988;2023-03-23T03:43:45;9.30;89.80
75994;DHT22;64680;53.800;9.988;2023-03-23T03:46:11;9.40;90.00
75994;DHT22;64680;53.800;9.988;2023-03-23T03:48:37;9.40;89.80
75994;DHT22;64680;53.800;9.988;2023-03-23T03:51:03;9.40;89.80
75994;DHT22;64680;53.800;9.988;2023-03-23T03:53:29;9.40;89.90
75994;DHT22;64680;53.800;9.988;2023-03-23T03:55:55;9.40;89.90
75994;DHT22;64680;53.800;9.988;2023-03-23T03:58:25;9.30;89.80
75994;DHT22;64680;53.800;9.988;2023-03-23T04:00:51;9.30;89.80
75994;DHT22;64680;53.800;9.988;2023-03-23T04:03:18;9.40;89.60
75994;DHT22;64680;53.800;9.988;2023-03-23T04:05:44;9.40;89.70
75994;DHT22;64680;53.800;9.988;2023-03-23T04:08:11;9.40;89.80
75994;DHT22;64680;53.800;9.988;2023-03-23T04:10:37;9.40;89.80
75994;DHT22;64680;53.800;9.988;2023-03-23T04:13:03;9.40;89.90
75994;DHT22;64680;53.800;9.988;2023-03-23T04:15:30;9.40;89.80
75994;DHT22;64680;53.800;9.988;2023-03-23T04:17:56;9.40;90.00
75994;DHT22;64680;53.800;9.988;2023-03-23T04:20:23;9.40;89.90
75994;DHT22;64680;53.800;9.988;2023-03-23T04:22:49;9.40;89.90
75994;DHT22;64680;53.800;9.988;2023-03-23T04:25:16;9.40;89.90
75994;DHT22;64680;53.800;9.988;2023-03-23T04:27:43;9.40;89.90
75994;DHT22;64680;53.800;9.988;2023-03-23T04:30:10;9.30;89.90
75994;DHT22;64680;53.800;9.988;2023-03-23T04:32:36;9.40;90.00
75994;DHT22;64680;53.800;9.988;2023-03-23T04:35:11;9.30;90.10
75994;DHT22;64680;53.800;9.988;2023-03-23T04:37:38;9.30;90.10
75994;DHT22;64680;53.800;9.988;2023-03-23T04:40:04;9.30;90.10
75994;DHT22;64680;53.800;9.988;2023-03-23T04:42:36;9.30;90.20
75994;DHT22;64680;53.800;9.988;2023-03-23T04:45:03;9.30;90.20
75994;DHT22;64680;53.800;9.988;2023-03-23T04:47:32;9.30;90.20
75994;DHT22;64680;53.800;9.988;2023-03-23T04:49:58;9.30;90.10
75994;DHT22;64680;53.800;9.988;2023-03-23T04:52:27;9.40;90.20
75994;DHT22;64680;53.800;9.988;2023-03-23T04:54:54;9.40;90.30
75994;DHT22;64680;53.800;9.988;2023-03-23T04:57:23;9.40;90.30
75994;DHT22;64680;53.800;9.988;2023-03-23T04:59:50;9.40;90.30
75994;DHT22;64680;53.800;9.988;2023-03-23T05:02:16;9.40;90.30
75994;DHT22;64680;53.800;9.988;2023-03-23T05:04:42;9.40;90.30
75994;DHT22;64680;53.800;9.988;2023-03-23T05:07:08;9.40;90.30
75994;DHT22;64680;53.800;9.988;2023-03-23T05:09:35;9.40;90.30
75994;DHT22;64680;53.800;9.988;2023-03-23T05:12:09;9.50;90.50
75994;DHT22;64680;53.800;9.988;2023-03-23T05:14:35;9.50;90.30
75994;DHT22;64680;53.800;9.988;2023-03-23T05:17:01;9.50;90.40
75994;DHT22;64680;53.800;9.988;2023-03-23T05:19:27;9.50;90.50
75994;DHT22;64680;53.800;9.988;2023-03-23T05:21:54;9.50;91.20
75994;DHT22;64680;53.800;9.988;2023-03-23T05:24:21;9.50;90.30
75994;DHT22;64680;53.800;9.988;2023-03-23T05:26:47;9.50;90.20
75994;DHT22;64680;53.800;9.988;2023-03-23T05:29:14;9.40;90.10
75994;DHT22;64680;53.800;9.988;2023-03-23T05:31:39;9.40;89.70
75994;DHT22;64680;53.800;9.988;2023-03-23T05:34:05;9.40;89.80
75994;DHT22;64680;53.800;9.988;2023-03-23T05:36:31;9.40;89.90
75994;DHT22;64680;53.800;9.988;2023-03-23T05:38:56;9.40;89.90
75994;DHT22;64680;53.800;9.988;2023-03-23T05:41:25;9.50;90.00
75994;DHT22;64680;53.800;9.988;2023-03-23T05:43:51;9.40;89.80
75994;DHT22;64680;53.800;9.988;2023-03-23T05:46:16;9.50;90.00
75994;DHT22;64680;53.800;9.988;2023-03-23T05:48:43;9.40;89.60
75994;DHT22;64680;53.800;9.988;2023-03-23T05:51:08;9.40;89.40
75994;DHT22;64680;53.800;9.988;2023-03-23T05:53:35;9.40;89.50
75994;DHT22;64680;53.800;9.988;2023-03-23T05:56:01;9.40;89.60
75994;DHT22;64680;53.800;9.988;2023-03-23T05:58:27;9.40;89.60
75994;DHT22;64680;53.800;9.988;2023-03-23T06:00:53;9.40;89.60
75994;DHT22;64680;53.800;9.988;2023-03-23T06:03:18;9.40;89.50
75994;DHT22;64680;53.800;9.988;2023-03-23T06:05:45;9.40;89.30
75994;DHT22;64680;53.800;9.988;2023-03-23T06:08:11;9.40;89.20
75994;DHT22;64680;53.800;9.988;2023-03-23T06:10:37;9.40;89.20
75994;DHT22;64680;53.800;9.988;2023-03-23T06:13:04;9.40;89.60
75994;DHT22;64680;53.800;9.988;2023-03-23T06:15:31;9.40;89.10
75994;DHT22;64680;53.800;9.988;2023-03-23T06:18:01;9.40;89.10
75994;DHT22;64680;53.800;9.988;2023-03-23T06:20:28;9.50;88.90
75994;DHT22;64680;53.800;9.988;2023-03-23T06:22:54;9.50;88.30
75994;DHT22;64680;53.800;9.988;2023-03-23T06:25:22;9.60;88.10
75994;DHT22;64680;53.800;9.988;2023-03-23T06:27:48;9.80;86.30
75994;DHT22;64680;53.800;9.988;2023-03-23T06:30:14;9.90;84.40
75994;DHT22;64680;53.800;9.988;2023-03-23T06:32:41;10.10;81.40
75994;DHT22;64680;53.800;9.988;2023-03-23T06:35:08;10.30;77.90
75994;DHT22;64680;53.800;9.988;2023-03-23T06:37:35;10.30;76.00
75994;DHT22;64680;53.800;9.988;2023-03-23T06:40:02;10.50;75.20
75994;DHT22;64680;53.800;9.988;2023-03-23T06:42:31;11.00;67.90
75994;DHT22;64680;53.800;9.988;2023-03-23T06:44:57;11.00;68.20
75994;DHT22;64680;53.800;9.988;2023-03-23T06:47:24;11.40;62.10
75994;DHT22;64680;53.800;9.988;2023-03-23T06:49:49;11.80;59.40
75994;DHT22;64680;53.800;9.988;2023-03-23T06:52:15;11.90;55.30
75994;DHT22;64680;53.800;9.988;2023-03-23T06:54:41;11.80;58.10
75994;DHT22;64680;53.800;9.988;2023-03-23T06:57:07;11.80;55.70
75994;DHT22;64680;53.800;9.988;2023-03-23T06:59:33;11.60;57.60
75994;DHT22;64680;53.800;9.988;2023-03-23T07:01:59;11.60;58.80
75994;DHT22;64680;53.800;9.988;2023-03-23T07:04:24;12.00;55.80
75994;DHT22;64680;53.800;9.988;2023-03-23T07:06:50;11.60;55.90
75994;DHT22;64680;53.800;9.988;2023-03-23T07:09:16;11.20;59.90
75994;DHT22;64680;53.800;9.988;2023-03-23T07:11:42;10.90;64.00
75994;DHT22;64680;53.800;9.988;2023-03-23T07:14:08;10.90;67.00
75994;DHT22;64680;53.800;9.988;2023-03-23T07:16:34;11.00;65.10
75994;DHT22;64680;53.800;9.988;2023-03-23T07:19:00;10.90;64.60
75994;DHT22;64680;53.800;9.988;2023-03-23T07:21:26;10.80;64.90
75994;DHT22;64680;53.800;9.988;2023-03-23T07:23:52;10.70;66.20
75994;DHT22;64680;53.800;9.988;2023-03-23T07:26:17;10.70;68.10
75994;DHT22;64680;53.800;9.988;2023-03-23T07:28:43;10.90;64.70
75994;DHT22;64680;53.800;9.988;2023-03-23T07:31:08;10.90;64.40
75994;DHT22;64680;53.800;9.988;2023-03-23T07:33:35;10.90;62.50
75994;DHT22;64680;53.800;9.988;2023-03-23T07:36:02;10.80;67.10
75994;DHT22;64680;53.800;9.988;2023-03-23T07:38:28;10.60;66.80
75994;DHT22;64680;53.800;9.988;2023-03-23T07:40:56;10.50;70.90
75994;DHT22;64680;53.800;9.988;2023-03-23T07:43:22;10.40;73.70
75994;DHT22;64680;53.800;9.988;2023-03-23T07:45:47;10.30;73.70
75994;DHT22;64680;53.800;9.988;2023-03-23T07:48:13;10.30;74.20
75994;DHT22;64680;53.800;9.988;2023-03-23T07:50:39;10.30;72.60
75994;DHT22;64680;53.800;9.988;2023-03-23T07:53:05;10.30;70.70
75994;DHT22;64680;53.800;9.988;2023-03-23T07:55:31;10.40;71.00
75994;DHT22;64680;53.800;9.988;2023-03-23T07:57:57;10.50;69.90
75994;DHT22;64680;53.800;9.988;2023-03-23T08:00:23;10.60;62.80
75994;DHT22;64680;53.800;9.988;2023-03-23T08:02:52;10.60;62.90
75994;DHT22;64680;53.800;9.988;2023-03-23T08:05:18;10.60;55.60
75994;DHT22;64680;53.800;9.988;2023-03-23T08:07:44;10.60;58.20
75994;DHT22;64680;53.800;9.988;2023-03-23T08:10:12;10.60;54.20
75994;DHT22;64680;53.800;9.988;2023-03-23T08:12:42;10.60;54.10
75994;DHT22;64680;53.800;9.988;2023-03-23T08:15:09;10.70;49.00
75994;DHT22;64680;53.800;9.988;2023-03-23T08:17:38;10.80;50.80
75994;DHT22;64680;53.800;9.988;2023-03-23T08:20:04;10.90;49.80
75994;DHT22;64680;53.800;9.988;2023-03-23T08:22:34;11.10;50.00
75994;DHT22;64680;53.800;9.988;2023-03-23T08:25:02;11.10;48.40
75994;DHT22;64680;53.800;9.988;2023-03-23T08:27:29;11.10;47.70
75994;DHT22;64680;53.800;9.988;2023-03-23T08:29:55;11.00;49.00
75994;DHT22;64680;53.800;9.988;2023-03-23T08:32:21;11.00;49.20
75994;DHT22;64680;53.800;9.988;2023-03-23T08:34:46;10.90;45.90
75994;DHT22;64680;53.800;9.988;2023-03-23T08:37:12;10.90;46.90
75994;DHT22;64680;53.800;9.988;2023-03-23T08:39:38;10.90;47.60
75994;DHT22;64680;53.800;9.988;2023-03-23T08:42:04;10.90;45.60
75994;DHT22;64680;53.800;9.988;2023-03-23T08:44:29;10.90;45.30
75994;DHT22;64680;53.800;9.988;2023-03-23T08:46:55;10.90;44.20
75994;DHT22;64680;53.800;9.988;2023-03-23T08:49:22;10.90;42.60
75994;DHT22;64680;53.800;9.988;2023-03-23T08:51:48;11.00;40.40
75994;DHT22;64680;53.800;9.988;2023-03-23T08:54:14;11.00;40.90
75994;DHT22;64680;53.800;9.988;2023-03-23T08:56:39;11.00;43.30
75994;DHT22;64680;53.800;9.988;2023-03-23T08:59:05;11.00;42.40
75994;DHT22;64680;53.800;9.988;2023-03-23T09:01:32;11.10;43.70
75994;DHT22;64680;53.800;9.988;2023-03-23T09:03:58;11.40;40.60
75994;DHT22;64680;53.800;9.988;2023-03-23T09:06:25;12.00;37.40
75994;DHT22;64680;53.800;9.988;2023-03-23T09:08:51;13.00;32.10
75994;DHT22;64680;53.800;9.988;2023-03-23T09:11:17;12.80;25.80
75994;DHT22;64680;53.800;9.988;2023-03-23T09:13:42;12.60;31.60
75994;DHT22;64680;53.800;9.988;2023-03-23T09:16:09;12.90;29.10
75994;DHT22;64680;53.800;9.988;2023-03-23T09:18:34;13.70;26.50
75994;DHT22;64680;53.800;9.988;2023-03-23T09:21:01;14.60;21.20
75994;DHT22;64680;53.800;9.988;2023-03-23T09:23:27;15.10;12.30
75994;DHT22;64680;53.800;9.988;2023-03-23T09:25:53;15.30;2.40
75994;DHT22;64680;53.800;9.988;2023-03-23T09:28:19;15.10;1.00
75994;DHT22;64680;53.800;9.988;2023-03-23T09:30:45;14.50;1.00
75994;DHT22;64680;53.800;9.988;2023-03-23T09:33:13;14.90;1.00
75994;DHT22;64680;53.800;9.988;2023-03-23T09:35:39;15.00;1.00
75994;DHT22;64680;53.800;9.988;2023-03-23T09:38:07;14.90;1.00
75994;DHT22;64680;53.800;9.988;2023-03-23T09:43:36;15.30;1.00
75994;DHT22;64680;53.800;9.988;2023-03-23T09:53:43;14.30;1.00
75994;DHT22;64680;53.800;9.988;2023-03-23T09:56:13;14.20;1.00
75994;DHT22;64680;53.800;9.988;2023-03-23T10:07:05;12.90;1.00
75994;DHT22;64680;53.800;9.988;2023-03-23T10:09:31;12.90;4.20
75994;DHT22;64680;53.800;9.988;2023-03-23T10:12:21;12.80;6.10
75994;DHT22;64680;53.800;9.988;2023-03-23T10:17:45;12.40;10.40
75994;DHT22;64680;53.800;9.988;2023-03-23T10:23:04;12.50;5.40
75994;DHT22;64680;53.800;9.988;2023-03-23T10:25:34;12.50;5.40
75994;DHT22;64680;53.800;9.988;2023-03-23T10:28:10;12.70;7.00
75994;DHT22;64680;53.800;9.988;2023-03-23T10:30:40;12.70;6.20
75994;DHT22;64680;53.800;9.988;2023-03-23T10:33:21;12.70;8.70
75994;DHT22;64680;53.800;9.988;2023-03-23T10:36:14;13.20;4.50
75994;DHT22;64680;53.800;9.988;2023-03-23T10:38:45;13.10;1.60
75994;DHT22;64680;53.800;9.988;2023-03-23T10:41:18;13.10;1.00
75994;DHT22;64680;53.800;9.988;2023-03-23T10:43:45;13.00;1.00
75994;DHT22;64680;53.800;9.988;2023-03-23T10:49:19;13.10;1.00
75994;DHT22;64680;53.800;9.988;2023-03-23T10:54:39;13.40;1.00
75994;DHT22;64680;53.800;9.988;2023-03-23T10:59:49;13.70;1.00
75994;DHT22;64680;53.800;9.988;2023-03-23T11:02:17;14.10;1.00
75994;DHT22;64680;53.800;9.988;2023-03-23T11:04:56;14.20;1.00
75994;DHT22;64680;53.800;9.988;2023-03-23T11:07:25;14.10;1.00
75994;DHT22;64680;53.800;9.988;2023-03-23T11:09:54;13.90;1.00
75994;DHT22;64680;53.800;9.988;2023-03-23T11:12:21;13.80;1.00
75994;DHT22;64680;53.800;9.988;2023-03-23T11:14:48;13.90;1.00
75994;DHT22;64680;53.800;9.988;2023-03-23T11:17:27;14.00;1.00
75994;DHT22;64680;53.800;9.988;2023-03-23T11:19:53;13.90;1.00
75994;DHT22;64680;53.800;9.988;2023-03-23T11:22:26;14.40;1.00
75994;DHT22;64680;53.800;9.988;2023-03-23T11:24:55;14.70;1.00
75994;DHT22;64680;53.800;9.988;2023-03-23T11:27:23;14.50;1.00
75994;DHT22;64680;53.800;9.988;2023-03-23T11:29:52;14.50;1.00
75994;DHT22;64680;53.800;9.988;2023-03-23T11:32:24;14.20;1.00
75994;DHT22;64680;53.800;9.988;2023-03-23T11:35:00;14.20;1.00
75994;DHT22;64680;53.800;9.988;2023-03-23T11:40:22;14.40;1.00
75994;DHT22;64680;53.800;9.988;2023-03-23T11:43:01;14.30;1.00
75994;DHT22;64680;53.800;9.988;2023-03-23T11:45:41;14.10;1.00
75994;DHT22;64680;53.800;9.988;2023-03-23T11:56:37;13.60;1.00
75994;DHT22;64680;53.800;9.988;2023-03-23T11:59:10;13.50;1.00
75994;DHT22;64680;53.800;9.988;2023-03-23T12:04:35;14.30;1.00
75994;DHT22;64680;53.800;9.988;2023-03-23T12:09:56;14.70;1.00
75994;DHT22;64680;53.800;9.988;2023-03-23T12:12:53;14.40;1.00
75994;DHT22;64680;53.800;9.988;2023-03-23T12:15:47;14.20;1.00
75994;DHT22;64680;53.800;9.988;2023-03-23T12:24:58;13.70;1.00
75994;DHT22;64680;53.800;9.988;2023-03-23T12:33:28;13.80;1.00
75994;DHT22;64680;53.800;9.988;2023-03-23T12:36:14;13.70;1.00
75994;DHT22;64680;53.800;9.988;2023-03-23T12:38:56;13.80;1.00
75994;DHT22;64680;53.800;9.988;2023-03-23T12:43:52;14.40;1.00
75994;DHT22;64680;53.800;9.988;2023-03-23T12:49:40;14.80;1.00
75994;DHT22;64680;53.800;9.988;2023-03-23T12:55:04;15.60;1.00
75994;DHT22;64680;53.800;9.988;2023-03-23T12:58:02;15.60;1.00
75994;DHT22;64680;53.800;9.988;2023-03-23T13:00:37;15.50;1.00
75994;DHT22;64680;53.800;9.988;2023-03-23T13:03:13;15.00;1.00
75994;DHT22;64680;53.800;9.988;2023-03-23T13:05:52;15.10;1.00
75994;DHT22;64680;53.800;9.988;2023-03-23T13:08:32;15.50;1.00
75994;DHT22;64680;53.800;9.988;2023-03-23T13:11:03;15.50;1.00
75994;DHT22;64680;53.800;9.988;2023-03-23T13:16:34;14.70;1.00
75994;DHT22;64680;53.800;9.988;2023-03-23T13:19:34;14.50;1.00
75994;DHT22;64680;53.800;9.988;2023-03-23T13:22:17;14.10;1.00
75994;DHT22;64680;53.800;9.988;2023-03-23T13:24:56;13.90;1.00
75994;DHT22;64680;53.800;9.988;2023-03-23T13:27:26;13.70;1.00
75994;DHT22;64680;53.800;9.988;2023-03-23T13:29:54;13.50;1.00
75994;DHT22;64680;53.800;9.988;2023-03-23T13:32:23;13.40;1.00
75994;DHT22;64680;53.800;9.988;2023-03-23T13:34:54;13.40;1.00
75994;DHT22;64680;53.800;9.988;2023-03-23T13:37:25;13.30;1.00
75994;DHT22;64680;53.800;9.988;2023-03-23T13:39:53;13.10;1.00
75994;DHT22;64680;53.800;9.988;2023-03-23T13:42:27;12.90;1.00
75994;DHT22;64680;53.800;9.988;2023-03-23T13:47:41;12.60;5.80
75994;DHT22;64680;53.800;9.988;2023-03-23T13:50:23;11.80;18.30
75994;DHT22;64680;53.800;9.988;2023-03-23T13:52:56;10.90;31.00
75994;DHT22;64680;53.800;9.988;2023-03-23T14:03:05;9.70;63.70
75994;DHT22;64680;53.800;9.988;2023-03-23T14:05:37;9.60;65.00
75994;DHT22;64680;53.800;9.988;2023-03-23T14:08:20;9.60;67.50
75994;DHT22;64680;53.800;9.988;2023-03-23T14:10:59;9.70;69.80
75994;DHT22;64680;53.800;9.988;2023-03-23T14:13:32;10.10;74.30
75994;DHT22;64680;53.800;9.988;2023-03-23T14:15:59;10.60;75.80
75994;DHT22;64680;53.800;9.988;2023-03-23T14:18:36;10.90;69.40
75994;DHT22;64680;53.800;9.988;2023-03-23T14:21:03;11.10;66.80
75994;DHT22;64680;53.800;9.988;2023-03-23T14:23:32;11.10;59.40
75994;DHT22;64680;53.800;9.988;2023-03-23T14:26:04;11.10;56.40
75994;DHT22;64680;53.800;9.988;2023-03-23T14:28:39;10.90;57.50
75994;DHT22;64680;53.800;9.988;2023-03-23T14:31:19;10.80;59.40
75994;DHT22;64680;53.800;9.988;2023-03-23T14:33:46;10.70;62.80
75994;DHT22;64680;53.800;9.988;2023-03-23T14:36:14;10.70;66.10
75994;DHT22;64680;53.800;9.988;2023-03-23T14:38:40;10.70;62.30
75994;DHT22;64680;53.800;9.988;2023-03-23T14:41:06;10.90;61.20
75994;DHT22;64680;53.800;9.988;2023-03-23T14:43:33;11.00;63.10
75994;DHT22;64680;53.800;9.988;2023-03-23T14:46:03;11.10;61.60
75994;DHT22;64680;53.800;9.988;2023-03-23T14:48:30;11.10;55.90
75994;DHT22;64680;53.800;9.988;2023-03-23T14:51:01;11.20;62.60
75994;DHT22;64680;53.800;9.988;2023-03-23T14:53:40;11.50;58.70
75994;DHT22;64680;53.800;9.988;2023-03-23T14:56:15;11.60;57.30
75994;DHT22;64680;53.800;9.988;2023-03-23T14:58:48;11.80;46.20
75994;DHT22;64680;53.800;9.988;2023-03-23T15:01:35;12.00;45.90
75994;DHT22;64680;53.800;9.988;2023-03-23T15:04:22;11.90;47.10
75994;DHT22;64680;53.800;9.988;2023-03-23T15:06:52;11.80;49.90
75994;DHT22;64680;53.800;9.988;2023-03-23T15:09:22;12.00;41.30
75994;DHT22;64680;53.800;9.988;2023-03-23T15:12:06;12.10;41.00
75994;DHT22;64680;53.800;9.988;2023-03-23T15:14:45;12.10;41.40
75994;DHT22;64680;53.800;9.988;2023-03-23T15:17:18;11.80;42.30
75994;DHT22;64680;53.800;9.988;2023-03-23T15:19:44;11.60;44.80
75994;DHT22;64680;53.800;9.988;2023-03-23T15:24:46;11.80;45.40
75994;DHT22;64680;53.800;9.988;2023-03-23T15:27:32;12.00;40.90
75994;DHT22;64680;53.800;9.988;2023-03-23T15:30:00;12.00;39.10
75994;DHT22;64680;53.800;9.988;2023-03-23T15:32:42;11.90;32.20
75994;DHT22;64680;53.800;9.988;2023-03-23T15:35:33;11.80;31.30
75994;DHT22;64680;53.800;9.988;2023-03-23T15:38:04;11.90;27.20
75994;DHT22;64680;53.800;9.988;2023-03-23T15:40:36;12.10;21.60
75994;DHT22;64680;53.800;9.988;2023-03-23T15:43:26;12.20;15.20
75994;DHT22;64680;53.800;9.988;2023-03-23T15:49:07;12.20;9.40
75994;DHT22;64680;53.800;9.988;2023-03-23T15:51:33;12.20;10.10
75994;DHT22;64680;53.800;9.988;2023-03-23T15:54:00;12.10;7.00
75994;DHT22;64680;53.800;9.988;2023-03-23T15:56:26;11.90;8.10
75994;DHT22;64680;53.800;9.988;2023-03-23T15:58:52;11.80;8.40
75994;DHT22;64680;53.800;9.988;2023-03-23T16:01:20;11.60;7.50
75994;DHT22;64680;53.800;9.988;2023-03-23T16:04:13;11.60;10.60
75994;DHT22;64680;53.800;9.988;2023-03-23T16:06:41;11.60;11.00
75994;DHT22;64680;53.800;9.988;2023-03-23T16:09:11;11.60;11.50
75994;DHT22;64680;53.800;9.988;2023-03-23T16:11:39;11.50;11.20
75994;DHT22;64680;53.800;9.988;2023-03-23T16:14:05;11.50;13.20
75994;DHT22;64680;53.800;9.988;2023-03-23T16:16:43;11.50;16.20
75994;DHT22;64680;53.800;9.988;2023-03-23T16:19:11;11.40;14.30
75994;DHT22;64680;53.800;9.988;2023-03-23T16:21:37;11.40;17.10
75994;DHT22;64680;53.800;9.988;2023-03-23T16:24:03;11.40;16.30
75994;DHT22;64680;53.800;9.988;2023-03-23T16:26:29;11.40;16.70
75994;DHT22;64680;53.800;9.988;2023-03-23T16:28:54;11.40;15.70
75994;DHT22;64680;53.800;9.988;2023-03-23T16:31:20;11.60;13.80
75994;DHT22;64680;53.800;9.988;2023-03-23T16:33:46;11.60;14.40
75994;DHT22;64680;53.800;9.988;2023-03-23T16:36:12;11.50;15.70
75994;DHT22;64680;53.800;9.988;2023-03-23T16:38:41;11.40;15.90
75994;DHT22;64680;53.800;9.988;2023-03-23T16:41:07;11.20;16.50
75994;DHT22;64680;53.800;9.988;2023-03-23T16:43:33;11.00;16.90
75994;DHT22;64680;53.800;9.988;2023-03-23T16:45:59;10.90;20.80
75994;DHT22;64680;53.800;9.988;2023-03-23T16:48:25;10.70;21.70
75994;DHT22;64680;53.800;9.988;2023-03-23T16:50:52;10.70;23.60
75994;DHT22;64680;53.800;9.988;2023-03-23T16:53:19;10.50;27.10
75994;DHT22;64680;53.800;9.988;2023-03-23T16:55:45;10.50;28.90
75994;DHT22;64680;53.800;9.988;2023-03-23T16:58:14;10.50;25.60
75994;DHT22;64680;53.800;9.988;2023-03-23T17:00:41;10.40;26.00
75994;DHT22;64680;53.800;9.988;2023-03-23T17:03:06;10.40;26.70
75994;DHT22;64680;53.800;9.988;2023-03-23T17:05:34;10.40;27.00
75994;DHT22;64680;53.800;9.988;2023-03-23T17:08:00;10.40;24.50
75994;DHT22;64680;53.800;9.988;2023-03-23T17:10:27;10.30;24.30
75994;DHT22;64680;53.800;9.988;2023-03-23T17:12:54;10.20;26.00
75994;DHT22;64680;53.800;9.988;2023-03-23T17:15:20;10.10;26.00
75994;DHT22;64680;53.800;9.988;2023-03-23T17:17:46;10.00;28.80
75994;DHT22;64680;53.800;9.988;2023-03-23T17:20:12;9.90;31.00
75994;DHT22;64680;53.800;9.988;2023-03-23T17:22:38;9.90;29.60
75994;DHT22;64680;53.800;9.988;2023-03-23T17:25:06;9.90;30.20
75994;DHT22;64680;53.800;9.988;2023-03-23T17:27:33;9.80;30.60
75994;DHT22;64680;53.800;9.988;2023-03-23T17:29:59;9.80;31.10
75994;DHT22;64680;53.800;9.988;2023-03-23T17:32:24;9.70;32.60
75994;DHT22;64680;53.800;9.988;2023-03-23T17:34:51;9.70;32.80
75994;DHT22;64680;53.800;9.988;2023-03-23T17:37:19;9.70;34.10
75994;DHT22;64680;53.800;9.988;2023-03-23T17:39:45;9.70;35.20
75994;DHT22;64680;53.800;9.988;2023-03-23T17:42:11;9.70;36.70
75994;DHT22;64680;53.800;9.988;2023-03-23T17:44:37;9.70;38.10
75994;DHT22;64680;53.800;9.988;2023-03-23T17:47:03;9.80;49.90